createdAt,value
2022-10-05T00:00:17.742Z,98701.16
2022-10-05T00:02:46.965Z,98710.72
2022-10-05T00:05:28.632Z,98705.34
2022-10-05T00:07:58.954Z,98710.22
2022-10-05T00:10:27.384Z,98701.34
2022-10-05T00:12:55.750Z,98701.16
2022-10-05T00:15:25.562Z,98701.31
2022-10-05T00:17:54.053Z,98699.84
2022-10-05T00:20:25.592Z,98695.38
2022-10-05T00:22:58.599Z,98697.47
2022-10-05T00:25:27.104Z,98686.91
2022-10-05T00:27:57.859Z,98687.41
2022-10-05T00:30:33.616Z,98688.13
2022-10-05T00:33:02.216Z,98693.59
2022-10-05T00:35:31.623Z,98695.00
2022-10-05T00:38:00.101Z,98691.81
2022-10-05T00:40:38.029Z,98698.81
2022-10-05T00:43:24.642Z,98701.38
2022-10-05T00:45:58.964Z,98697.38
2022-10-05T00:48:37.282Z,98690.31
2022-10-05T00:51:21.456Z,98683.81
2022-10-05T00:54:13.547Z,98696.47
2022-10-05T00:57:10.562Z,98693.72
2022-10-05T00:59:50.306Z,98694.75
2022-10-05T01:02:30.913Z,98699.03
2022-10-05T01:05:09.069Z,98696.19
2022-10-05T01:07:46.936Z,98704.88
2022-10-05T01:10:24.388Z,98705.88
2022-10-05T01:13:04.956Z,98700.09
2022-10-05T01:15:40.394Z,98700.97
2022-10-05T01:18:17.763Z,98696.63
2022-10-05T01:20:57.706Z,98702.63
2022-10-05T01:24:07.703Z,98700.16
2022-10-05T01:26:53.080Z,98697.28
2022-10-05T01:29:26.349Z,98701.25
2022-10-05T01:32:04.794Z,98704.19
2022-10-05T01:34:41.505Z,98709.63
2022-10-05T01:37:18.580Z,98704.84
2022-10-05T01:39:53.921Z,98705.31
2022-10-05T01:42:32.566Z,98710.72
2022-10-05T01:45:07.737Z,98709.22
2022-10-05T01:47:43.808Z,98704.91
2022-10-05T01:50:21.442Z,98706.13
2022-10-05T01:52:57.390Z,98703.44
2022-10-05T01:55:32.799Z,98704.19
2022-10-05T01:58:11.612Z,98700.81
2022-10-05T02:00:46.993Z,98705.53
2022-10-05T02:03:20.311Z,98712.59
2022-10-05T02:05:54.157Z,98711.41
2022-10-05T02:08:31.078Z,98710.06
2022-10-05T02:11:03.499Z,98714.53
2022-10-05T02:13:36.835Z,98717.06
2022-10-05T02:16:15.771Z,98712.47
2022-10-05T02:18:51.023Z,98710.72
2022-10-05T02:21:21.968Z,98715.75
2022-10-05T02:23:54.823Z,98714.41
2022-10-05T02:26:25.529Z,98713.75
2022-10-05T02:29:00.092Z,98709.94
2022-10-05T02:31:37.487Z,98717.47
2022-10-05T02:34:38.909Z,98715.59
2022-10-05T02:37:33.169Z,98721.22
2022-10-05T02:40:16.632Z,98714.06
2022-10-05T02:42:52.737Z,98721.34
2022-10-05T02:45:35.579Z,98715.31
2022-10-05T02:48:16.226Z,98723.75
2022-10-05T02:50:54.752Z,98723.28
2022-10-05T02:53:30.196Z,98720.03
2022-10-05T02:56:12.302Z,98725.31
2022-10-05T02:58:47.487Z,98727.66
2022-10-05T03:01:25.147Z,98722.69
2022-10-05T03:04:06.407Z,98718.41
2022-10-05T03:06:47.289Z,98728.28
2022-10-05T03:09:21.639Z,98726.25
2022-10-05T03:12:00.486Z,98718.31
2022-10-05T03:14:41.325Z,98714.88
2022-10-05T03:17:16.632Z,98723.47
2022-10-05T03:20:14.639Z,98713.41
2022-10-05T03:22:51.743Z,98730.69
2022-10-05T03:25:51.465Z,98725.00
2022-10-05T03:28:25.801Z,98731.47
2022-10-05T03:31:02.599Z,98733.66
2022-10-05T03:33:43.686Z,98740.28
2022-10-05T03:36:23.157Z,98739.03
2022-10-05T03:39:02.127Z,98736.44
2022-10-05T03:41:38.058Z,98738.88
2022-10-05T03:44:20.682Z,98744.00
2022-10-05T03:47:09.354Z,98736.22
2022-10-05T03:49:52.993Z,98738.47
2022-10-05T03:52:27.552Z,98729.88
2022-10-05T03:55:02.784Z,98736.31
2022-10-05T03:57:37.758Z,98741.84
2022-10-05T04:00:14.437Z,98732.66
2022-10-05T04:02:54.223Z,98738.56
2022-10-05T04:05:26.170Z,98743.38
2022-10-05T04:08:00.797Z,98745.09
2022-10-05T04:10:32.746Z,98750.84
2022-10-05T04:13:08.154Z,98744.81
2022-10-05T04:15:42.786Z,98741.72
2022-10-05T04:18:23.689Z,98745.47
2022-10-05T04:20:57.515Z,98741.81
2022-10-05T04:23:39.783Z,98739.13
2022-10-05T04:26:14.025Z,98744.69
2022-10-05T04:28:50.208Z,98750.59
2022-10-05T04:31:29.782Z,98745.97
2022-10-05T04:34:11.652Z,98755.28
2022-10-05T04:36:47.018Z,98753.94
2022-10-05T04:39:27.383Z,98752.47
2022-10-05T04:42:09.481Z,98758.72
2022-10-05T04:45:03.701Z,98763.25
2022-10-05T04:48:09.569Z,98763.00
2022-10-05T04:50:53.601Z,98762.75
2022-10-05T04:53:31.592Z,98755.72
2022-10-05T04:56:09.410Z,98769.81
2022-10-05T04:58:58.276Z,98758.78
2022-10-05T05:01:41.293Z,98763.34
2022-10-05T05:04:35.830Z,98765.03
2022-10-05T05:07:21.708Z,98764.34
2022-10-05T05:10:16.520Z,98765.97
2022-10-05T05:12:57.438Z,98772.34
2022-10-05T05:15:39.768Z,98764.31
2022-10-05T05:18:33.856Z,98760.72
2022-10-05T05:21:14.865Z,98764.47
2022-10-05T05:23:50.617Z,98769.06
2022-10-05T05:26:28.553Z,98768.41
2022-10-05T05:29:10.104Z,98774.44
2022-10-05T05:31:47.339Z,98776.38
2022-10-05T05:34:34.417Z,98776.25
2022-10-05T05:37:15.718Z,98777.94
2022-10-05T05:39:53.636Z,98778.13
2022-10-05T05:42:35.678Z,98777.41
2022-10-05T05:45:15.872Z,98778.47
2022-10-05T05:47:52.125Z,98770.13
2022-10-05T05:50:43.318Z,98784.94
2022-10-05T05:53:22.006Z,98774.75
2022-10-05T05:55:56.480Z,98778.16
2022-10-05T05:58:30.391Z,98776.63
2022-10-05T06:01:06.585Z,98774.81
2022-10-05T06:03:39.606Z,98778.78
2022-10-05T06:06:12.717Z,98784.38
2022-10-05T06:08:45.858Z,98780.88
2022-10-05T06:11:49.375Z,98784.47
2022-10-05T06:14:27.222Z,98781.72
2022-10-05T06:17:02.609Z,98789.94
2022-10-05T06:19:34.752Z,98788.41
2022-10-05T06:22:08.584Z,98793.66
2022-10-05T06:24:43.449Z,98792.94
2022-10-05T06:27:26.500Z,98800.03
2022-10-05T06:30:05.852Z,98795.59
2022-10-05T06:32:59.199Z,98799.75
2022-10-05T06:35:42.654Z,98805.53
2022-10-05T06:38:29.229Z,98794.59
2022-10-05T06:41:07.391Z,98792.81
2022-10-05T06:43:48.697Z,98795.94
2022-10-05T06:46:45.340Z,98802.47
2022-10-05T06:49:26.681Z,98809.38
2022-10-05T06:52:23.778Z,98810.59
2022-10-05T06:55:08.585Z,98815.44
2022-10-05T06:57:55.108Z,98819.19
2022-10-05T07:00:26.381Z,98826.66
2022-10-05T07:03:01.898Z,98823.53
2022-10-05T07:05:49.169Z,98823.84
2022-10-05T07:08:26.826Z,98820.97
2022-10-05T07:11:05.996Z,98831.56
2022-10-05T07:13:51.911Z,98833.31
2022-10-05T07:16:31.219Z,98836.41
2022-10-05T07:19:11.669Z,98837.41
2022-10-05T07:21:48.825Z,98847.19
2022-10-05T07:24:30.615Z,98831.38
2022-10-05T07:27:11.127Z,98837.84
2022-10-05T07:29:50.211Z,98845.94
2022-10-05T07:32:33.877Z,98844.13
2022-10-05T07:35:09.648Z,98840.91
2022-10-05T07:37:55.045Z,98850.00
2022-10-05T07:40:31.837Z,98859.03
2022-10-05T07:43:08.972Z,98864.47
2022-10-05T07:45:46.390Z,98850.75
2022-10-05T07:48:20.168Z,98870.38
2022-10-05T07:51:02.817Z,98873.94
2022-10-05T07:53:39.031Z,98879.38
2022-10-05T07:56:14.654Z,98876.19
2022-10-05T07:58:48.153Z,98881.41
2022-10-05T08:01:23.573Z,98881.25
2022-10-05T08:03:59.308Z,98875.06
2022-10-05T08:06:42.128Z,98881.47
2022-10-05T08:09:28.207Z,98882.47
2022-10-05T08:12:08.812Z,98882.97
2022-10-05T08:14:45.963Z,98890.53
2022-10-05T08:17:25.668Z,98890.00
2022-10-05T08:20:00.558Z,98882.41
2022-10-05T08:22:35.027Z,98887.03
2022-10-05T08:25:11.183Z,98896.56
2022-10-05T08:27:46.971Z,98895.91
2022-10-05T08:30:17.546Z,98893.31
2022-10-05T08:32:52.375Z,98894.50
2022-10-05T08:35:32.020Z,98899.00
2022-10-05T08:38:00.688Z,98905.78
2022-10-05T08:41:03.097Z,98908.56
2022-10-05T08:44:13.909Z,98897.94
2022-10-05T08:47:16.062Z,98896.91
2022-10-05T08:50:04.824Z,98902.06
2022-10-05T08:52:43.411Z,98913.75
2022-10-05T08:55:44.899Z,98911.84
2022-10-05T08:58:51.048Z,98907.47
2022-10-05T09:01:34.128Z,98913.50
2022-10-05T09:04:23.825Z,98914.47
2022-10-05T09:07:10.652Z,98913.88
2022-10-05T09:10:12.519Z,98910.84
2022-10-05T09:12:59.446Z,98914.25
2022-10-05T09:16:03.356Z,98924.56
2022-10-05T09:19:01.358Z,98924.72
2022-10-05T09:21:43.052Z,98931.06
2022-10-05T09:24:29.564Z,98929.22
2022-10-05T09:27:03.648Z,98932.63
2022-10-05T09:30:05.804Z,98939.38
2022-10-05T09:33:17.718Z,98935.28
2022-10-05T09:36:06.169Z,98941.94
2022-10-05T09:38:50.988Z,98948.63
2022-10-05T09:41:49.413Z,98949.44
2022-10-05T09:44:32.705Z,98958.06
2022-10-05T09:47:25.322Z,98954.84
2022-10-05T09:50:13.435Z,98952.03
2022-10-05T09:53:06.198Z,98943.97
2022-10-05T09:56:10.534Z,98954.38
2022-10-05T09:59:30.552Z,98957.91
2022-10-05T10:02:20.625Z,98959.41
2022-10-05T10:05:25.429Z,98959.06
2022-10-05T10:08:11.763Z,98960.91
2022-10-05T10:11:03.138Z,98965.53
2022-10-05T10:14:10.497Z,98970.84
2022-10-05T10:17:09.010Z,98976.28
2022-10-05T10:20:05.426Z,98981.19
2022-10-05T10:23:14.091Z,98982.81
2022-10-05T10:26:20.903Z,98986.50
2022-10-05T10:29:14.058Z,98995.50
2022-10-05T10:31:58.276Z,98987.22
2022-10-05T10:34:55.790Z,98991.72
2022-10-05T10:37:39.261Z,98989.53
2022-10-05T10:40:35.034Z,98990.16
2022-10-05T10:43:33.275Z,98995.28
2022-10-05T10:46:09.383Z,98993.00
2022-10-05T10:48:55.814Z,98989.34
2022-10-05T10:51:47.962Z,98999.78
2022-10-05T10:54:53.608Z,98993.63
2022-10-05T10:57:34.081Z,99003.81
2022-10-05T11:00:18.177Z,99010.50
2022-10-05T11:03:31.234Z,98998.56
2022-10-05T11:06:27.650Z,99009.03
2022-10-05T11:09:09.786Z,99018.47
2022-10-05T11:12:13.647Z,99016.78
2022-10-05T11:15:10.245Z,99014.97
2022-10-05T11:18:06.129Z,99020.38
2022-10-05T11:21:15.262Z,99012.47
2022-10-05T11:24:14.121Z,99015.44
2022-10-05T11:27:00.848Z,99020.19
2022-10-05T11:29:49.589Z,99024.97
2022-10-05T11:32:40.094Z,99027.53
2022-10-05T11:35:43.185Z,99026.34
2022-10-05T11:38:37.199Z,99036.22
2022-10-05T11:41:34.337Z,99036.50
2022-10-05T11:44:59.150Z,99033.59
2022-10-05T11:47:32.516Z,99042.88
2022-10-05T11:50:12.790Z,99055.84
2022-10-05T11:52:48.622Z,99046.84
2022-10-05T11:55:27.877Z,99060.66
2022-10-05T11:58:01.196Z,99054.69
2022-10-05T12:00:37.978Z,99054.28
2022-10-05T12:03:32.264Z,99053.25
2022-10-05T12:06:17.523Z,99056.06
2022-10-05T12:08:58.688Z,99056.97
2022-10-05T12:11:43.475Z,99059.03
2022-10-05T12:14:24.451Z,99065.47
2022-10-05T12:17:00.221Z,99067.88
2022-10-05T12:19:36.926Z,99074.25
2022-10-05T12:22:16.421Z,99070.31
2022-10-05T12:25:15.097Z,99075.84
2022-10-05T12:27:48.220Z,99070.38
2022-10-05T12:30:19.969Z,99069.78
2022-10-05T12:33:02.383Z,99072.34
2022-10-05T12:35:53.770Z,99081.19
2022-10-05T12:38:29.709Z,99077.25
2022-10-05T12:41:11.319Z,99077.44
2022-10-05T12:43:50.455Z,99086.88
2022-10-05T12:46:28.468Z,99083.06
2022-10-05T12:49:28.415Z,99085.31
2022-10-05T12:52:02.191Z,99081.56
2022-10-05T12:54:43.985Z,99081.13
2022-10-05T12:57:21.720Z,99078.66
2022-10-05T12:59:57.929Z,99090.28
2022-10-05T13:02:39.185Z,99085.81
2022-10-05T13:05:21.448Z,99098.94
2022-10-05T13:08:09.540Z,99090.22
2022-10-05T13:10:41.965Z,99090.88
2022-10-05T13:13:37.463Z,99094.00
2022-10-05T13:16:18.535Z,99091.91
2022-10-05T13:19:01.619Z,99104.91
2022-10-05T13:21:40.828Z,99103.63
2022-10-05T13:24:19.698Z,99101.75
2022-10-05T13:26:54.405Z,99100.97
2022-10-05T13:29:30.286Z,99101.34
2022-10-05T13:32:05.987Z,99100.13
2022-10-05T13:34:42.719Z,99109.06
2022-10-05T13:37:21.235Z,99102.16
2022-10-05T13:39:59.791Z,99107.59
2022-10-05T13:42:36.890Z,99104.34
2022-10-05T13:45:14.677Z,99118.06
2022-10-05T13:47:55.097Z,99120.38
2022-10-05T13:50:32.661Z,99114.72
2022-10-05T13:53:13.883Z,99122.75
2022-10-05T13:55:47.771Z,99116.69
2022-10-05T13:58:24.118Z,99124.69
2022-10-05T14:00:56.066Z,99126.41
2022-10-05T14:03:31.403Z,99127.00
2022-10-05T14:06:02.784Z,99124.38
2022-10-05T14:08:34.819Z,99117.84
2022-10-05T14:11:22.220Z,99129.22
2022-10-05T14:13:53.302Z,99139.84
2022-10-05T14:16:23.831Z,99142.72
2022-10-05T14:18:56.380Z,99144.13
2022-10-05T14:21:27.457Z,99144.28
2022-10-05T14:23:57.264Z,99146.69
2022-10-05T14:26:38.741Z,99143.31
2022-10-05T14:29:19.358Z,99145.88
2022-10-05T14:31:53.145Z,99149.13
2022-10-05T14:34:35.268Z,99148.00
2022-10-05T14:37:18.744Z,99154.50
2022-10-05T14:39:49.996Z,99154.63
2022-10-05T14:42:22.912Z,99157.66
2022-10-05T14:45:12.808Z,99161.13
2022-10-05T14:47:49.139Z,99162.25
2022-10-05T14:50:21.613Z,99161.44
2022-10-05T14:53:05.171Z,99161.44
2022-10-05T14:56:05.375Z,99166.88
2022-10-05T14:58:59.092Z,99169.38
2022-10-05T15:01:31.146Z,99174.00
2022-10-05T15:04:13.676Z,99177.00
2022-10-05T15:06:51.106Z,99174.66
2022-10-05T15:09:47.487Z,99170.00
2022-10-05T15:12:23.697Z,99177.59
2022-10-05T15:15:02.884Z,99182.88
2022-10-05T15:17:37.888Z,99177.22
2022-10-05T15:20:18.056Z,99191.72
2022-10-05T15:22:51.477Z,99197.22
2022-10-05T15:25:32.399Z,99183.28
2022-10-05T15:28:21.844Z,99196.69
2022-10-05T15:31:01.502Z,99198.44
2022-10-05T15:33:39.836Z,99195.34
2022-10-05T15:36:20.390Z,99201.13
2022-10-05T15:39:03.575Z,99210.69
2022-10-05T15:41:49.302Z,99207.91
2022-10-05T15:44:29.939Z,99203.88
2022-10-05T15:47:06.465Z,99204.63
2022-10-05T15:49:47.831Z,99212.72
2022-10-05T15:52:24.901Z,99214.53
2022-10-05T15:55:19.735Z,99216.66
2022-10-05T15:57:59.756Z,99221.44
2022-10-05T16:00:35.780Z,99208.25
2022-10-05T16:03:20.375Z,99219.84
2022-10-05T16:06:12.918Z,99214.66
2022-10-05T16:09:11.353Z,99214.94
2022-10-05T16:12:05.663Z,99213.56
2022-10-05T16:14:45.342Z,99226.84
2022-10-05T16:17:28.392Z,99220.81
2022-10-05T16:20:17.766Z,99232.25
2022-10-05T16:22:59.836Z,99227.34
2022-10-05T16:25:45.874Z,99237.06
2022-10-05T16:28:29.341Z,99244.56
2022-10-05T16:31:04.571Z,99234.00
2022-10-05T16:33:53.132Z,99240.59
2022-10-05T16:36:37.795Z,99239.28
2022-10-05T16:39:15.514Z,99244.91
2022-10-05T16:41:57.297Z,99248.13
2022-10-05T16:44:37.673Z,99242.59
2022-10-05T16:47:29.440Z,99242.91
2022-10-05T16:50:05.340Z,99239.13
2022-10-05T16:52:44.285Z,99252.44
2022-10-05T16:55:20.446Z,99251.53
2022-10-05T16:57:56.130Z,99255.84
2022-10-05T17:00:30.299Z,99258.38
2022-10-05T17:03:26.180Z,99249.75
2022-10-05T17:06:22.042Z,99255.25
2022-10-05T17:09:20.480Z,99258.13
2022-10-05T17:12:04.528Z,99261.16
2022-10-05T17:14:42.327Z,99259.88
2022-10-05T17:17:41.579Z,99258.13
2022-10-05T17:20:41.645Z,99267.41
2022-10-05T17:23:35.851Z,99267.75
2022-10-05T17:26:45.200Z,99260.59
2022-10-05T17:29:32.009Z,99260.03
2022-10-05T17:32:14.045Z,99262.50
2022-10-05T17:35:18.478Z,99264.81
2022-10-05T17:38:08.050Z,99256.84
2022-10-05T17:40:40.545Z,99264.03
2022-10-05T17:46:12.706Z,99277.34
2022-10-05T17:49:08.923Z,99272.53
2022-10-05T17:52:21.662Z,99273.81
2022-10-05T17:55:28.321Z,99280.75
2022-10-05T17:58:21.900Z,99284.38
2022-10-05T18:01:15.090Z,99277.44
2022-10-05T18:03:51.596Z,99278.19
2022-10-05T18:06:37.978Z,99282.94
2022-10-05T18:09:33.217Z,99283.03
2022-10-05T18:12:28.260Z,99279.81
2022-10-05T18:15:31.597Z,99296.25
2022-10-05T18:18:25.263Z,99286.19
2022-10-05T18:21:28.871Z,99296.47
2022-10-05T18:24:20.101Z,99283.59
2022-10-05T18:27:04.654Z,99292.00
2022-10-05T18:30:09.514Z,99297.38
2022-10-05T18:32:59.044Z,99302.69
2022-10-05T18:35:38.213Z,99301.84
2022-10-05T18:38:34.798Z,99296.41
2022-10-05T18:41:10.341Z,99303.91
2022-10-05T18:43:45.894Z,99301.94
2022-10-05T18:46:33.126Z,99309.84
2022-10-05T18:49:32.020Z,99296.31
2022-10-05T18:52:13.610Z,99314.06
2022-10-05T18:55:00.967Z,99322.69
2022-10-05T18:58:19.230Z,99313.84
2022-10-05T19:01:18.054Z,99332.91
2022-10-05T19:04:04.872Z,99317.41
2022-10-05T19:06:47.889Z,99313.47
2022-10-05T19:09:42.147Z,99318.03
2022-10-05T19:12:24.366Z,99321.53
2022-10-05T19:15:06.633Z,99314.97
2022-10-05T19:18:07.394Z,99316.06
2022-10-05T19:20:48.615Z,99313.47
2022-10-05T19:23:37.514Z,99320.88
2022-10-05T19:26:27.571Z,99316.25
2022-10-05T19:29:12.520Z,99314.97
2022-10-05T19:31:51.129Z,99331.53
2022-10-05T19:34:43.580Z,99331.00
2022-10-05T19:37:23.224Z,99331.84
2022-10-05T19:40:07.338Z,99331.03
2022-10-05T19:43:07.355Z,99323.31
2022-10-05T19:45:44.865Z,99334.94
2022-10-05T19:48:30.653Z,99324.69
2022-10-05T19:51:04.880Z,99325.75
2022-10-05T19:53:38.710Z,99330.00
2022-10-05T19:56:20.865Z,99322.84
2022-10-05T19:59:00.360Z,99332.22
2022-10-05T20:01:39.505Z,99324.81
2022-10-05T20:04:11.946Z,99332.50
2022-10-05T20:06:40.949Z,99334.81
2022-10-05T20:09:27.800Z,99328.06
2022-10-05T20:12:00.993Z,99329.53
2022-10-05T20:14:59.216Z,99336.25
2022-10-05T20:17:56.061Z,99334.91
2022-10-05T20:20:39.659Z,99330.25
2022-10-05T20:23:24.087Z,99334.19
2022-10-05T20:26:13.331Z,99319.94
2022-10-05T20:28:43.202Z,99330.97
2022-10-05T20:31:12.678Z,99323.78
2022-10-05T20:33:42.899Z,99323.38
2022-10-05T20:36:13.598Z,99335.28
2022-10-05T20:38:45.764Z,99339.53
2022-10-05T20:41:17.938Z,99346.00
2022-10-05T20:43:49.385Z,99345.13
2022-10-05T20:46:21.791Z,99340.59
2022-10-05T20:48:53.888Z,99337.81
2022-10-05T20:51:23.689Z,99336.88
2022-10-05T20:53:52.241Z,99341.56
2022-10-05T20:56:26.401Z,99344.28
2022-10-05T20:58:55.477Z,99349.34
2022-10-05T21:01:27.148Z,99343.28
2022-10-05T21:03:58.021Z,99336.22
2022-10-05T21:06:28.234Z,99330.25
2022-10-05T21:08:57.179Z,99346.28
2022-10-05T21:11:28.711Z,99345.28
2022-10-05T21:14:04.797Z,99341.94
2022-10-05T21:16:38.398Z,99338.69
2022-10-05T21:19:17.129Z,99341.94
2022-10-05T21:21:47.152Z,99337.72
2022-10-05T21:24:18.861Z,99339.94
2022-10-05T21:26:50.308Z,99341.03
2022-10-05T21:29:22.444Z,99341.34
2022-10-05T21:31:51.241Z,99347.06
2022-10-05T21:34:20.859Z,99349.56
2022-10-05T21:36:49.378Z,99358.66
2022-10-05T21:39:21.093Z,99349.38
2022-10-05T21:41:49.908Z,99357.69
2022-10-05T21:44:20.942Z,99341.94
2022-10-05T21:46:51.399Z,99343.91
2022-10-05T21:49:21.772Z,99355.03
2022-10-05T21:51:50.319Z,99362.97
2022-10-05T21:54:22.064Z,99353.16
2022-10-05T21:56:52.885Z,99362.56
2022-10-05T21:59:25.352Z,99372.88
2022-10-05T22:01:54.150Z,99370.31
2022-10-05T22:04:24.412Z,99383.53
2022-10-05T22:06:52.825Z,99378.66
2022-10-05T22:09:21.209Z,99386.69
2022-10-05T22:11:50.229Z,99387.22
2022-10-05T22:14:18.933Z,99377.22
2022-10-05T22:16:47.802Z,99383.41
2022-10-05T22:19:19.377Z,99375.91
2022-10-05T22:21:49.320Z,99383.63
2022-10-05T22:24:18.073Z,99386.09
2022-10-05T22:26:49.116Z,99392.09
2022-10-05T22:29:18.325Z,99385.72
2022-10-05T22:31:49.155Z,99382.06
2022-10-05T22:34:18.288Z,99382.59
2022-10-05T22:36:48.777Z,99386.44
2022-10-05T22:39:18.364Z,99398.84
2022-10-05T22:41:46.969Z,99391.13
2022-10-05T22:44:15.416Z,99382.63
2022-10-05T22:46:44.738Z,99385.09
2022-10-05T22:49:13.228Z,99387.91
2022-10-05T22:51:41.664Z,99381.66
2022-10-05T22:54:11.512Z,99393.91
2022-10-05T22:56:39.857Z,99394.16
2022-10-05T22:59:08.439Z,99396.69
2022-10-05T23:01:36.928Z,99393.03
2022-10-05T23:04:05.522Z,99400.50
2022-10-05T23:06:33.908Z,99395.25
2022-10-05T23:09:02.341Z,99409.41
2022-10-05T23:11:32.129Z,99407.06
2022-10-05T23:14:00.699Z,99396.03
2022-10-05T23:16:30.279Z,99410.00
2022-10-05T23:19:00.224Z,99406.84
2022-10-05T23:21:30.932Z,99399.41
2022-10-05T23:23:59.416Z,99400.81
2022-10-05T23:26:28.018Z,99403.28
2022-10-05T23:28:57.866Z,99396.34
2022-10-05T23:31:28.144Z,99399.28
2022-10-05T23:33:56.612Z,99401.53
2022-10-05T23:36:27.678Z,99406.75
2022-10-05T23:38:56.170Z,99400.13
2022-10-05T23:41:25.572Z,99393.44
2022-10-05T23:43:55.340Z,99394.56
2022-10-05T23:46:25.485Z,99385.91
2022-10-05T23:48:54.393Z,99390.34
2022-10-05T23:51:22.462Z,99388.72
2022-10-05T23:53:50.862Z,99391.88
2022-10-05T23:56:19.289Z,99386.22
2022-10-05T23:58:47.704Z,99389.63
